createdAt,value
2016-11-09T00:00:54.051Z,0
2016-11-09T00:01:54.006Z,0
2016-11-09T00:02:54.009Z,0
2016-11-09T00:03:53.983Z,0
2016-11-09T00:04:53.940Z,0
2016-11-09T00:05:53.924Z,0
2016-11-09T00:06:53.886Z,0
2016-11-09T00:07:53.841Z,0
2016-11-09T00:08:53.862Z,0
2016-11-09T00:09:53.787Z,0
2016-11-09T00:10:53.779Z,0
2016-11-09T00:11:53.743Z,0
2016-11-09T00:12:53.728Z,0
2016-11-09T00:13:53.740Z,0
2016-11-09T00:14:53.683Z,0
2016-11-09T00:15:53.644Z,0
2016-11-09T00:16:53.639Z,0
2016-11-09T00:17:53.616Z,0
2016-11-09T00:18:53.566Z,0
2016-11-09T00:19:53.568Z,0
2016-11-09T00:20:53.534Z,0
2016-11-09T00:21:53.495Z,0
2016-11-09T00:22:53.464Z,0
2016-11-09T00:23:53.443Z,0
2016-11-09T00:24:53.427Z,0
2016-11-09T00:25:53.384Z,0
2016-11-09T00:26:53.345Z,0
2016-11-09T00:27:53.358Z,0
2016-11-09T00:28:53.333Z,0
2016-11-09T00:29:53.300Z,0
2016-11-09T00:30:53.263Z,0
2016-11-09T00:31:53.244Z,0
2016-11-09T00:32:53.231Z,0
2016-11-09T00:33:53.185Z,0
2016-11-09T00:34:53.175Z,0
2016-11-09T00:35:53.126Z,0
2016-11-09T00:36:53.140Z,0
2016-11-09T00:37:53.095Z,0
2016-11-09T00:38:53.066Z,0
2016-11-09T00:39:53.043Z,0
2016-11-09T00:40:53.003Z,0
2016-11-09T00:41:52.970Z,0
2016-11-09T00:42:52.973Z,0
2016-11-09T00:43:52.932Z,0
2016-11-09T00:44:52.930Z,0
2016-11-09T00:45:52.886Z,0
2016-11-09T00:46:52.843Z,0
2016-11-09T00:47:52.849Z,0
2016-11-09T00:48:52.783Z,0
2016-11-09T00:49:52.775Z,0
2016-11-09T00:50:52.736Z,0
2016-11-09T00:51:52.708Z,0
2016-11-09T00:52:52.682Z,0
2016-11-09T00:53:52.671Z,0
2016-11-09T00:54:52.643Z,0
2016-11-09T00:55:52.639Z,0
2016-11-09T00:56:52.587Z,0
2016-11-09T00:57:52.571Z,0
2016-11-09T00:58:52.513Z,0
2016-11-09T00:59:52.515Z,0
2016-11-09T01:00:52.479Z,0
2016-11-09T01:01:52.646Z,0
2016-11-09T01:02:52.464Z,0
2016-11-09T01:03:52.408Z,0
2016-11-09T01:04:52.367Z,0
2016-11-09T01:05:52.357Z,0
2016-11-09T01:06:52.319Z,0
2016-11-09T01:07:52.306Z,0
2016-11-09T01:08:52.270Z,0
2016-11-09T01:09:52.249Z,0
2016-11-09T01:10:52.248Z,0
2016-11-09T01:11:52.223Z,0
2016-11-09T01:12:52.183Z,0
2016-11-09T01:13:52.137Z,0
2016-11-09T01:14:52.108Z,0
2016-11-09T01:15:52.068Z,0
2016-11-09T01:16:52.077Z,0
2016-11-09T01:17:52.020Z,0
2016-11-09T01:18:52.010Z,0
2016-11-09T01:19:52.017Z,0
2016-11-09T01:20:51.991Z,0
2016-11-09T01:21:51.952Z,0
2016-11-09T01:22:51.921Z,0
2016-11-09T01:23:51.917Z,0
2016-11-09T01:24:51.862Z,0
2016-11-09T01:25:51.847Z,0
2016-11-09T01:26:51.825Z,0
2016-11-09T01:27:51.768Z,0
2016-11-09T01:28:51.758Z,0
2016-11-09T01:29:51.737Z,0
2016-11-09T01:30:51.694Z,0
2016-11-09T01:31:51.679Z,0
2016-11-09T01:32:51.669Z,0
2016-11-09T01:33:51.642Z,0
2016-11-09T01:34:51.622Z,0
2016-11-09T01:35:51.573Z,0
2016-11-09T01:36:51.529Z,0
2016-11-09T01:37:51.524Z,0
2016-11-09T01:38:51.499Z,0
2016-11-09T01:39:51.483Z,0
2016-11-09T01:40:51.426Z,0
2016-11-09T01:41:51.428Z,0
2016-11-09T01:42:51.441Z,0
2016-11-09T01:43:51.382Z,0
2016-11-09T01:44:51.347Z,0
2016-11-09T01:45:51.301Z,0
2016-11-09T01:46:51.606Z,0
2016-11-09T01:47:51.255Z,0
2016-11-09T01:48:51.266Z,0
2016-11-09T01:49:51.203Z,0
2016-11-09T01:50:51.480Z,0
2016-11-09T01:51:51.139Z,0
2016-11-09T01:52:51.138Z,0
2016-11-09T01:53:51.112Z,0
2016-11-09T01:54:51.089Z,0
2016-11-09T01:55:51.063Z,0
2016-11-09T01:56:51.039Z,0
2016-11-09T01:57:51.034Z,0
2016-11-09T01:58:50.980Z,0
2016-11-09T01:59:50.965Z,0
2016-11-09T02:00:50.905Z,0
2016-11-09T02:01:50.905Z,0
2016-11-09T02:02:50.887Z,0
2016-11-09T02:03:50.871Z,0
2016-11-09T02:04:50.823Z,0
2016-11-09T02:05:50.815Z,0
2016-11-09T02:06:50.804Z,0
2016-11-09T02:07:50.752Z,0
2016-11-09T02:08:50.714Z,0
2016-11-09T02:09:50.691Z,0
2016-11-09T02:10:50.655Z,0
2016-11-09T02:11:50.638Z,0
2016-11-09T02:12:50.656Z,0
2016-11-09T02:13:50.609Z,0
2016-11-09T02:14:50.561Z,0
2016-11-09T02:15:50.549Z,0
2016-11-09T02:16:50.807Z,0
2016-11-09T02:17:50.517Z,0
2016-11-09T02:18:50.476Z,0
2016-11-09T02:19:50.492Z,0
2016-11-09T02:20:50.438Z,0
2016-11-09T02:21:50.389Z,0
2016-11-09T02:22:50.356Z,0
2016-11-09T02:23:50.332Z,0
2016-11-09T02:24:50.323Z,0
2016-11-09T02:25:50.276Z,0
2016-11-09T02:26:50.235Z,0
2016-11-09T02:27:50.223Z,0
2016-11-09T02:28:50.196Z,0
2016-11-09T02:29:50.166Z,0
2016-11-09T02:30:50.187Z,0
2016-11-09T02:31:50.118Z,0
2016-11-09T02:32:50.083Z,0
2016-11-09T02:33:50.109Z,0
2016-11-09T02:34:50.035Z,0
2016-11-09T02:35:50.054Z,0
2016-11-09T02:36:49.993Z,0
2016-11-09T02:37:49.985Z,0
2016-11-09T02:38:49.969Z,0
2016-11-09T02:39:50.205Z,0
2016-11-09T02:40:49.890Z,0
2016-11-09T02:41:49.873Z,0
2016-11-09T02:42:49.846Z,0
2016-11-09T02:43:49.830Z,0
2016-11-09T02:44:49.801Z,0
2016-11-09T02:45:49.744Z,0
2016-11-09T02:46:50.047Z,0
2016-11-09T02:47:49.725Z,0
2016-11-09T02:48:49.694Z,0
2016-11-09T02:49:49.675Z,0
2016-11-09T02:50:49.615Z,0
2016-11-09T02:51:49.624Z,0
2016-11-09T02:52:49.604Z,0
2016-11-09T02:53:49.565Z,0
2016-11-09T02:54:49.544Z,0
2016-11-09T02:55:49.523Z,0
2016-11-09T02:56:49.469Z,0
2016-11-09T02:57:49.446Z,0
2016-11-09T02:58:49.422Z,0
2016-11-09T02:59:49.430Z,0
2016-11-09T03:00:49.399Z,0
2016-11-09T03:01:49.362Z,0
2016-11-09T03:02:49.315Z,0
2016-11-09T03:03:49.307Z,0
2016-11-09T03:04:49.274Z,0
2016-11-09T03:05:49.271Z,0
2016-11-09T03:06:49.215Z,0
2016-11-09T03:07:49.193Z,0
2016-11-09T03:08:49.176Z,0
2016-11-09T03:09:49.147Z,0
2016-11-09T03:10:49.140Z,0
2016-11-09T03:11:49.097Z,0
2016-11-09T03:12:49.074Z,0
2016-11-09T03:13:49.024Z,0
2016-11-09T03:14:49.030Z,0
2016-11-09T03:15:48.967Z,0
2016-11-09T03:16:48.977Z,0
2016-11-09T03:17:48.927Z,0
2016-11-09T03:18:48.918Z,0
2016-11-09T03:19:48.934Z,0
2016-11-09T03:20:48.840Z,0
2016-11-09T03:21:48.850Z,0
2016-11-09T03:22:48.811Z,0
2016-11-09T03:23:48.756Z,0
2016-11-09T03:24:48.750Z,0
2016-11-09T03:25:48.735Z,0
2016-11-09T03:26:48.701Z,0
2016-11-09T03:27:48.668Z,0
2016-11-09T03:28:48.657Z,0
2016-11-09T03:29:48.617Z,0
2016-11-09T03:30:48.602Z,0
2016-11-09T03:31:48.597Z,0
2016-11-09T03:32:48.548Z,0
2016-11-09T03:33:48.524Z,0
2016-11-09T03:34:48.501Z,0
2016-11-09T03:35:48.472Z,0
2016-11-09T03:36:48.449Z,0
2016-11-09T03:37:48.412Z,0
2016-11-09T03:38:48.434Z,0
2016-11-09T03:39:48.373Z,0
2016-11-09T03:40:48.316Z,0
2016-11-09T03:41:48.323Z,0
2016-11-09T03:42:48.287Z,0
2016-11-09T03:43:48.248Z,0
2016-11-09T03:44:48.227Z,0
2016-11-09T03:45:48.216Z,0
2016-11-09T03:46:48.158Z,0
2016-11-09T03:47:48.129Z,0
2016-11-09T03:48:48.132Z,0
2016-11-09T03:49:48.108Z,0
2016-11-09T03:50:48.059Z,0
2016-11-09T03:51:48.092Z,0
2016-11-09T03:52:48.035Z,0
2016-11-09T03:53:47.982Z,0
2016-11-09T03:54:47.986Z,0
2016-11-09T03:55:47.924Z,0
2016-11-09T03:56:47.922Z,0
2016-11-09T03:57:47.907Z,0
2016-11-09T03:58:47.862Z,0
2016-11-09T03:59:47.852Z,0
2016-11-09T04:00:47.807Z,0
2016-11-09T04:01:47.786Z,0
2016-11-09T04:02:47.770Z,0
2016-11-09T04:03:47.744Z,0
2016-11-09T04:04:47.732Z,0
2016-11-09T04:05:47.699Z,0
2016-11-09T04:06:47.660Z,0
2016-11-09T04:07:47.641Z,0
2016-11-09T04:08:47.610Z,0
2016-11-09T04:09:47.597Z,0
2016-11-09T04:10:47.552Z,0
2016-11-09T04:11:47.548Z,0
2016-11-09T04:12:47.519Z,0
2016-11-09T04:13:47.461Z,0
2016-11-09T04:14:47.439Z,0
2016-11-09T04:15:47.415Z,0
2016-11-09T04:16:47.400Z,0
2016-11-09T04:17:47.344Z,0
2016-11-09T04:18:47.365Z,0
2016-11-09T04:19:47.318Z,0
2016-11-09T04:20:47.300Z,0
2016-11-09T04:21:47.287Z,0
2016-11-09T04:22:47.266Z,0
2016-11-09T04:23:47.199Z,0
2016-11-09T04:24:47.197Z,0
2016-11-09T04:25:47.166Z,0
2016-11-09T04:26:47.144Z,0
2016-11-09T04:27:47.091Z,0
2016-11-09T04:28:47.087Z,0
2016-11-09T04:29:47.078Z,0
2016-11-09T04:30:47.340Z,0
2016-11-09T04:31:47.015Z,0
2016-11-09T04:32:46.978Z,0
2016-11-09T04:33:46.957Z,0
2016-11-09T04:34:46.939Z,0
2016-11-09T04:35:46.904Z,0
2016-11-09T04:36:46.891Z,0
2016-11-09T04:37:46.865Z,0
2016-11-09T04:38:46.809Z,0
2016-11-09T04:39:46.824Z,0
2016-11-09T04:40:46.772Z,0
2016-11-09T04:41:46.738Z,0
2016-11-09T04:42:46.708Z,0
2016-11-09T04:43:46.676Z,0
2016-11-09T04:44:46.638Z,0
2016-11-09T04:45:46.634Z,0
2016-11-09T04:46:46.623Z,0
2016-11-09T04:47:46.589Z,0
2016-11-09T04:48:46.574Z,0
2016-11-09T04:49:46.520Z,0
2016-11-09T04:50:46.521Z,0
2016-11-09T04:51:46.465Z,0
2016-11-09T04:52:46.483Z,0
2016-11-09T04:53:46.439Z,0
2016-11-09T04:54:46.373Z,0
2016-11-09T04:55:46.376Z,0
2016-11-09T04:56:46.328Z,0
2016-11-09T04:57:46.327Z,0
2016-11-09T04:58:46.263Z,0
2016-11-09T04:59:46.263Z,0
2016-11-09T05:00:46.225Z,0
2016-11-09T05:01:46.201Z,0
2016-11-09T05:02:46.196Z,0
2016-11-09T05:03:46.157Z,0
2016-11-09T05:04:46.133Z,0
2016-11-09T05:05:46.109Z,0
2016-11-09T05:06:46.099Z,0
2016-11-09T05:07:46.038Z,0
2016-11-09T05:08:46.022Z,0
2016-11-09T05:09:45.990Z,0
2016-11-09T05:10:45.995Z,0
2016-11-09T05:11:45.930Z,0
2016-11-09T05:12:45.937Z,0
2016-11-09T05:13:45.909Z,0
2016-11-09T05:14:45.892Z,0
2016-11-09T05:15:45.814Z,0
2016-11-09T05:16:45.804Z,0
2016-11-09T05:17:45.786Z,0
2016-11-09T05:18:45.791Z,0
2016-11-09T05:19:45.740Z,0
2016-11-09T05:20:45.708Z,0
2016-11-09T05:21:45.680Z,0
2016-11-09T05:22:45.664Z,0
2016-11-09T05:23:45.947Z,0
2016-11-09T05:24:45.618Z,0
2016-11-09T05:25:45.574Z,0
2016-11-09T05:26:45.551Z,0
2016-11-09T05:27:45.534Z,0
2016-11-09T05:28:45.507Z,0
2016-11-09T05:29:45.483Z,0
2016-11-09T05:30:45.458Z,0
2016-11-09T05:31:45.435Z,0
2016-11-09T05:32:45.369Z,0
2016-11-09T05:33:45.361Z,0
2016-11-09T05:34:45.336Z,0
2016-11-09T05:35:45.310Z,4
2016-11-09T05:36:45.281Z,4
2016-11-09T05:37:45.248Z,0
2016-11-09T05:38:45.249Z,4
2016-11-09T05:39:45.205Z,4
2016-11-09T05:40:45.175Z,4
2016-11-09T05:41:45.158Z,4
2016-11-09T05:42:45.136Z,4
2016-11-09T05:43:45.309Z,8
2016-11-09T05:44:45.052Z,8
2016-11-09T05:45:45.037Z,12
2016-11-09T05:46:45.061Z,12
2016-11-09T05:47:44.985Z,16
2016-11-09T05:48:44.957Z,16
2016-11-09T05:49:44.947Z,24
2016-11-09T05:50:44.891Z,32
2016-11-09T05:51:44.902Z,32
2016-11-09T05:52:44.978Z,44
2016-11-09T05:53:45.150Z,52
2016-11-09T05:54:44.775Z,60
2016-11-09T05:55:45.092Z,76
2016-11-09T05:56:44.790Z,88
2016-11-09T05:57:44.702Z,104
2016-11-09T05:58:44.693Z,124
2016-11-09T05:59:44.654Z,148
2016-11-09T06:00:44.693Z,168
2016-11-09T06:01:44.593Z,196
2016-11-09T06:02:44.580Z,224
2016-11-09T06:03:44.585Z,252
2016-11-09T06:04:44.517Z,284
2016-11-09T06:05:44.523Z,324
2016-11-09T06:06:44.459Z,360
2016-11-09T06:07:44.661Z,404
2016-11-09T06:08:44.422Z,452
2016-11-09T06:09:44.563Z,500
2016-11-09T06:10:44.380Z,548
2016-11-09T06:11:44.340Z,600
2016-11-09T06:12:44.297Z,668
2016-11-09T06:13:44.320Z,804
2016-11-09T06:14:44.275Z,1004
2016-11-09T06:15:44.241Z,1196
2016-11-09T06:16:44.200Z,1372
2016-11-09T06:17:44.185Z,1508
2016-11-09T06:18:44.162Z,1688
2016-11-09T06:19:44.418Z,1808
2016-11-09T06:20:44.121Z,1968
2016-11-09T06:21:44.053Z,2136
2016-11-09T06:22:44.057Z,2320
2016-11-09T06:23:44.036Z,2516
2016-11-09T06:24:43.974Z,2744
2016-11-09T06:25:43.959Z,2908
2016-11-09T06:26:43.925Z,3160
2016-11-09T06:27:43.915Z,3284
2016-11-09T06:28:43.881Z,3536
2016-11-09T06:29:43.867Z,3732
2016-11-09T06:30:43.828Z,4048
2016-11-09T06:31:43.797Z,4480
2016-11-09T06:32:43.759Z,4512
2016-11-09T06:33:43.759Z,4712
2016-11-09T06:34:43.915Z,5056
2016-11-09T06:35:44.087Z,5300
2016-11-09T06:36:43.666Z,5348
2016-11-09T06:37:43.663Z,5408
2016-11-09T06:38:43.600Z,5496
2016-11-09T06:39:43.600Z,5764
2016-11-09T06:40:43.548Z,6416
2016-11-09T06:41:43.556Z,6520
2016-11-09T06:42:43.507Z,6796
2016-11-09T06:43:43.472Z,7136
2016-11-09T06:44:43.446Z,7264
2016-11-09T06:45:43.437Z,7444
2016-11-09T06:46:43.391Z,7644
2016-11-09T06:47:43.379Z,8036
2016-11-09T06:48:43.351Z,8152
2016-11-09T06:49:43.296Z,8560
2016-11-09T06:50:43.289Z,8704
2016-11-09T06:51:43.299Z,8852
2016-11-09T06:52:43.260Z,8956
2016-11-09T06:53:43.205Z,9112
2016-11-09T06:54:43.186Z,9380
2016-11-09T06:55:43.160Z,9744
2016-11-09T06:56:43.126Z,10016
2016-11-09T06:57:43.116Z,10284
2016-11-09T06:58:43.099Z,10540
2016-11-09T06:59:43.030Z,10644
2016-11-09T07:00:43.030Z,11004
2016-11-09T07:01:43.219Z,11152
2016-11-09T07:02:43.297Z,11276
2016-11-09T07:03:42.957Z,11488
2016-11-09T07:04:42.956Z,11908
2016-11-09T07:05:42.916Z,11920
2016-11-09T07:06:42.860Z,12572
2016-11-09T07:07:42.851Z,12848
2016-11-09T07:08:43.124Z,12652
2016-11-09T07:09:42.826Z,12916
2016-11-09T07:10:42.779Z,12776
2016-11-09T07:11:42.746Z,13000
2016-11-09T07:12:42.761Z,13012
2016-11-09T07:13:42.698Z,13484
2016-11-09T07:14:42.690Z,13588
2016-11-09T07:15:42.658Z,13904
2016-11-09T07:16:42.605Z,13708
2016-11-09T07:17:42.609Z,14076
2016-11-09T07:18:42.588Z,14068
2016-11-09T07:19:42.549Z,14204
2016-11-09T07:20:42.534Z,14480
2016-11-09T07:21:42.496Z,14528
2016-11-09T07:22:42.482Z,14668
2016-11-09T07:23:42.466Z,15200
2016-11-09T07:24:42.451Z,14820
2016-11-09T07:25:42.397Z,15392
2016-11-09T07:26:42.381Z,15712
2016-11-09T07:27:42.552Z,15872
2016-11-09T07:28:42.339Z,16544
2016-11-09T07:29:42.318Z,17312
2016-11-09T07:30:42.285Z,18208
2016-11-09T07:31:42.264Z,17728
2016-11-09T07:32:42.230Z,17472
2016-11-09T07:33:42.211Z,18176
2016-11-09T07:34:42.158Z,19008
2016-11-09T07:35:42.154Z,19904
2016-11-09T07:36:42.151Z,17536
2016-11-09T07:37:42.101Z,17824
2016-11-09T07:38:42.081Z,17600
2016-11-09T07:39:42.050Z,17440
2016-11-09T07:40:42.030Z,17408
2016-11-09T07:41:42.025Z,17856
2016-11-09T07:42:41.987Z,17920
2016-11-09T07:43:41.934Z,17664
2016-11-09T07:44:41.913Z,17280
2016-11-09T07:45:42.081Z,17472
2016-11-09T07:46:42.187Z,18304
2016-11-09T07:47:41.863Z,19648
2016-11-09T07:48:41.839Z,19968
2016-11-09T07:49:41.813Z,19296
2016-11-09T07:50:41.799Z,19008
2016-11-09T07:51:41.766Z,20032
2016-11-09T07:52:41.937Z,21312
2016-11-09T07:53:41.704Z,23264
2016-11-09T07:54:41.672Z,23680
2016-11-09T07:55:41.645Z,22912
2016-11-09T07:56:41.639Z,22816
2016-11-09T07:57:41.601Z,23072
2016-11-09T07:58:41.581Z,24544
2016-11-09T07:59:41.569Z,24128
2016-11-09T08:00:41.544Z,23648
2016-11-09T08:01:41.516Z,24192
2016-11-09T08:02:41.476Z,24992
2016-11-09T08:03:41.430Z,25248
2016-11-09T08:04:41.433Z,26368
2016-11-09T08:05:41.415Z,26976
2016-11-09T08:06:41.388Z,28096
2016-11-09T08:07:41.329Z,29792
2016-11-09T08:08:41.328Z,28672
2016-11-09T08:09:41.311Z,30464
2016-11-09T08:10:41.255Z,30816
2016-11-09T08:11:41.238Z,37664
2016-11-09T08:12:41.251Z,36352
2016-11-09T08:13:41.221Z,33824
2016-11-09T08:14:41.183Z,32800
2016-11-09T08:15:41.162Z,32832
2016-11-09T08:16:41.623Z,32064
2016-11-09T08:17:41.111Z,31584
2016-11-09T08:18:41.068Z,30048
2016-11-09T08:19:41.064Z,30336
2016-11-09T08:20:41.024Z,29824
2016-11-09T08:21:41.011Z,31840
2016-11-09T08:22:40.981Z,25056
2016-11-09T08:23:40.952Z,39648
2016-11-09T08:24:40.915Z,30048
2016-11-09T08:25:40.907Z,41376
2016-11-09T08:26:40.883Z,40384
2016-11-09T08:27:40.829Z,38624
2016-11-09T08:28:40.843Z,36064
2016-11-09T08:29:40.811Z,37600
2016-11-09T08:30:41.364Z,37440
2016-11-09T08:31:40.767Z,38144
2016-11-09T08:32:40.731Z,37568
2016-11-09T08:33:40.751Z,38560
2016-11-09T08:34:40.706Z,40992
2016-11-09T08:35:40.655Z,37152
2016-11-09T08:36:40.646Z,38272
2016-11-09T08:37:40.619Z,38880
2016-11-09T08:38:40.577Z,39392
2016-11-09T08:39:40.866Z,40768
2016-11-09T08:40:41.063Z,40768
2016-11-09T08:41:40.513Z,40352
2016-11-09T08:42:40.454Z,43008
2016-11-09T08:43:40.480Z,42016
2016-11-09T08:44:40.431Z,40672
2016-11-09T08:45:40.424Z,36736
2016-11-09T08:46:40.385Z,32416
2016-11-09T08:47:40.373Z,31680
2016-11-09T08:48:40.349Z,33024
2016-11-09T08:49:40.290Z,34688
2016-11-09T08:50:40.298Z,39104
2016-11-09T08:51:40.291Z,41856
2016-11-09T08:52:40.985Z,42176
2016-11-09T08:53:40.208Z,41248
2016-11-09T08:54:40.200Z,41376
2016-11-09T08:55:40.189Z,43072
2016-11-09T08:56:40.162Z,46464
2016-11-09T08:57:40.116Z,45728
2016-11-09T08:58:40.117Z,47040
2016-11-09T08:59:40.097Z,49952
2016-11-09T09:00:40.074Z,49632
2016-11-09T09:01:40.040Z,49568
2016-11-09T09:02:39.999Z,48576
2016-11-09T09:03:40.010Z,51040
2016-11-09T09:04:39.975Z,53856
2016-11-09T09:05:39.965Z,52992
2016-11-09T09:06:39.915Z,57568
2016-11-09T09:07:39.893Z,56928
2016-11-09T09:08:39.863Z,55744
2016-11-09T09:09:39.868Z,55872
2016-11-09T09:10:39.861Z,56416
2016-11-09T09:11:39.818Z,59136
2016-11-09T09:12:39.807Z,60896
2016-11-09T09:13:39.760Z,59968
2016-11-09T09:14:39.753Z,60032
2016-11-09T09:15:39.723Z,57312
2016-11-09T09:16:39.711Z,52704
2016-11-09T09:17:39.667Z,50784
2016-11-09T09:18:39.673Z,51872
2016-11-09T09:19:39.647Z,52960
2016-11-09T09:20:39.608Z,53504
2016-11-09T09:21:39.589Z,55904
2016-11-09T09:22:39.562Z,57088
2016-11-09T09:23:39.531Z,55680
2016-11-09T09:24:39.498Z,53856
2016-11-09T09:25:39.506Z,50560
2016-11-09T09:26:39.806Z,51840
2016-11-09T09:27:39.446Z,51136
2016-11-09T09:28:39.414Z,48608
2016-11-09T09:29:39.420Z,47808
2016-11-09T09:30:39.688Z,47168
2016-11-09T09:31:39.422Z,47456
2016-11-09T09:32:39.619Z,49536
2016-11-09T09:33:39.309Z,50752
2016-11-09T09:34:39.290Z,48992
2016-11-09T09:35:39.269Z,52640
2016-11-09T09:36:39.256Z,55008
2016-11-09T09:37:39.221Z,55200
2016-11-09T09:38:39.191Z,55552
2016-11-09T09:39:39.205Z,58848
2016-11-09T09:40:39.154Z,58048
2016-11-09T09:41:39.440Z,51392
2016-11-09T09:42:39.110Z,52416
2016-11-09T09:43:39.097Z,51072
2016-11-09T09:44:39.042Z,51776
2016-11-09T09:45:39.022Z,48576
2016-11-09T09:46:39.028Z,57312
2016-11-09T09:47:38.994Z,54944
2016-11-09T09:48:38.970Z,49408
2016-11-09T09:49:38.935Z,55872
2016-11-09T09:50:39.265Z,52768
2016-11-09T09:51:39.422Z,45344
2016-11-09T09:52:38.870Z,40928
2016-11-09T09:53:38.849Z,38720
2016-11-09T09:54:38.840Z,40000
2016-11-09T09:55:38.825Z,44288
2016-11-09T09:56:38.788Z,45568
2016-11-09T09:57:38.818Z,46176
2016-11-09T09:58:38.740Z,44256
2016-11-09T09:59:38.715Z,42240
2016-11-09T10:00:38.690Z,41184
2016-11-09T10:01:38.683Z,42208
2016-11-09T10:02:38.660Z,41856
2016-11-09T10:03:38.621Z,43712
2016-11-09T10:04:38.626Z,42752
2016-11-09T10:05:38.694Z,38048
2016-11-09T10:06:38.577Z,38880
2016-11-09T10:07:38.554Z,38080
2016-11-09T10:08:38.526Z,41344
2016-11-09T10:09:38.482Z,39360
2016-11-09T10:10:38.495Z,35104
2016-11-09T10:11:38.452Z,35040
2016-11-09T10:12:38.452Z,35936
2016-11-09T10:13:38.720Z,37184
2016-11-09T10:14:38.401Z,34560
2016-11-09T10:15:38.377Z,34560
2016-11-09T10:16:38.341Z,35808
2016-11-09T10:17:38.329Z,37600
2016-11-09T10:18:38.287Z,40736
2016-11-09T10:19:38.256Z,41408
2016-11-09T10:20:38.268Z,40000
2016-11-09T10:21:38.238Z,38144
2016-11-09T10:22:38.236Z,40064
2016-11-09T10:23:38.228Z,44288
2016-11-09T10:24:38.171Z,40768
2016-11-09T10:25:38.171Z,41088
2016-11-09T10:26:38.146Z,42912
2016-11-09T10:27:38.115Z,41472
2016-11-09T10:28:38.075Z,37536
2016-11-09T10:29:38.074Z,34720
2016-11-09T10:30:38.051Z,39104
2016-11-09T10:31:38.312Z,36960
2016-11-09T10:32:37.982Z,32384
2016-11-09T10:33:37.988Z,36736
2016-11-09T10:34:37.939Z,34464
2016-11-09T10:35:37.943Z,32512
2016-11-09T10:36:37.896Z,29568
2016-11-09T10:37:37.908Z,29728
2016-11-09T10:38:37.868Z,27392
2016-11-09T10:39:37.832Z,27104
2016-11-09T10:40:37.820Z,27680
2016-11-09T10:41:37.786Z,28256
2016-11-09T10:42:37.748Z,27328
2016-11-09T10:43:37.736Z,25344
2016-11-09T10:44:37.724Z,26496
2016-11-09T10:45:37.711Z,27616
2016-11-09T10:46:37.691Z,27840
2016-11-09T10:47:37.659Z,30272
2016-11-09T10:48:37.659Z,32704
2016-11-09T10:49:37.609Z,33984
2016-11-09T10:50:37.579Z,34144
2016-11-09T10:51:37.582Z,33696
2016-11-09T10:52:37.538Z,34816
2016-11-09T10:53:37.579Z,34944
2016-11-09T10:54:37.497Z,34848
2016-11-09T10:55:37.509Z,35552
2016-11-09T10:56:37.513Z,35616
2016-11-09T10:57:37.439Z,35456
2016-11-09T10:58:37.432Z,36224
2016-11-09T10:59:37.385Z,33408
2016-11-09T11:00:37.376Z,31712
2016-11-09T11:01:37.342Z,28448
2016-11-09T11:02:37.644Z,29472
2016-11-09T11:03:37.298Z,29760
2016-11-09T11:04:37.267Z,29568
2016-11-09T11:05:37.278Z,30592
2016-11-09T11:06:37.227Z,33824
2016-11-09T11:07:37.209Z,32480
2016-11-09T11:08:37.178Z,32416
2016-11-09T11:09:37.157Z,31648
2016-11-09T11:10:37.152Z,31904
2016-11-09T11:11:37.137Z,35040
2016-11-09T11:12:37.085Z,41952
2016-11-09T11:13:37.088Z,40992
2016-11-09T11:14:37.059Z,44896
2016-11-09T11:15:37.367Z,43808
2016-11-09T11:16:37.023Z,40896
2016-11-09T11:17:37.005Z,39104
2016-11-09T11:18:36.987Z,38880
2016-11-09T11:19:36.955Z,46752
2016-11-09T11:20:36.935Z,43104
2016-11-09T11:21:36.913Z,44864
2016-11-09T11:22:36.906Z,44352
2016-11-09T11:23:36.884Z,31744
2016-11-09T11:24:36.844Z,34560
2016-11-09T11:25:36.853Z,35264
2016-11-09T11:26:36.819Z,38016
2016-11-09T11:27:36.804Z,32928
2016-11-09T11:28:36.755Z,30496
2016-11-09T11:29:36.767Z,37728
2016-11-09T11:30:36.726Z,35584
2016-11-09T11:31:36.688Z,30112
2016-11-09T11:32:36.671Z,27968
2016-11-09T11:33:36.675Z,26528
2016-11-09T11:34:36.630Z,28512
2016-11-09T11:35:36.608Z,31008
2016-11-09T11:36:36.567Z,26880
2016-11-09T11:37:36.558Z,24032
2016-11-09T11:38:36.538Z,23264
2016-11-09T11:39:36.527Z,23040
2016-11-09T11:40:36.517Z,23776
2016-11-09T11:41:36.463Z,21824
2016-11-09T11:42:36.444Z,21120
2016-11-09T11:43:36.443Z,21600
2016-11-09T11:44:36.430Z,21376
2016-11-09T11:45:36.369Z,21888
2016-11-09T11:46:36.367Z,23808
2016-11-09T11:47:36.341Z,25632
2016-11-09T11:48:36.337Z,25824
2016-11-09T11:49:36.297Z,25024
2016-11-09T11:50:36.301Z,26048
2016-11-09T11:51:36.243Z,26016
2016-11-09T11:52:36.226Z,25280
2016-11-09T11:53:36.546Z,27744
2016-11-09T11:54:36.192Z,28768
2016-11-09T11:55:36.191Z,35776
2016-11-09T11:56:36.173Z,37568
2016-11-09T11:57:36.159Z,37408
2016-11-09T11:58:36.105Z,38432
2016-11-09T11:59:36.099Z,37312
2016-11-09T12:00:36.099Z,37312
2016-11-09T12:01:36.052Z,34880
2016-11-09T12:02:36.039Z,37792
2016-11-09T12:03:36.014Z,35840
2016-11-09T12:04:35.993Z,31648
2016-11-09T12:05:35.957Z,29600
2016-11-09T12:06:36.263Z,29344
2016-11-09T12:07:35.928Z,28576
2016-11-09T12:08:35.897Z,28896
2016-11-09T12:09:35.890Z,28128
2016-11-09T12:10:35.854Z,28224
2016-11-09T12:11:35.853Z,28960
2016-11-09T12:12:35.793Z,28480
2016-11-09T12:13:35.791Z,26848
2016-11-09T12:14:35.785Z,26048
2016-11-09T12:15:35.751Z,24992
2016-11-09T12:16:36.063Z,25120
2016-11-09T12:17:35.732Z,24384
2016-11-09T12:18:35.683Z,23936
2016-11-09T12:19:35.707Z,23904
2016-11-09T12:20:35.640Z,24480
2016-11-09T12:21:35.656Z,25920
2016-11-09T12:22:35.616Z,26720
2016-11-09T12:23:35.562Z,26752
2016-11-09T12:24:35.574Z,26848
2016-11-09T12:25:35.530Z,27200
2016-11-09T12:26:35.515Z,26560
2016-11-09T12:27:35.513Z,25952
2016-11-09T12:28:35.477Z,25760
2016-11-09T12:29:35.463Z,26304
2016-11-09T12:30:35.448Z,26624
2016-11-09T12:31:35.423Z,26432
2016-11-09T12:32:35.688Z,26880
2016-11-09T12:33:35.385Z,27872
2016-11-09T12:34:35.360Z,28736
2016-11-09T12:35:35.302Z,28480
2016-11-09T12:36:35.295Z,27840
2016-11-09T12:37:35.295Z,27168
2016-11-09T12:38:35.268Z,27616
2016-11-09T12:39:35.267Z,28576
2016-11-09T12:40:35.523Z,27904
2016-11-09T12:41:35.191Z,27232
2016-11-09T12:42:35.186Z,28000
2016-11-09T12:43:35.169Z,29856
2016-11-09T12:44:35.133Z,31968
2016-11-09T12:45:35.103Z,33344
2016-11-09T12:46:35.090Z,37696
2016-11-09T12:47:35.058Z,32608
2016-11-09T12:48:35.087Z,29952
2016-11-09T12:49:35.057Z,33280
2016-11-09T12:50:35.027Z,37984
2016-11-09T12:51:35.010Z,40032
2016-11-09T12:52:34.983Z,33056
2016-11-09T12:53:34.929Z,28768
2016-11-09T12:54:34.927Z,35200
2016-11-09T12:55:34.925Z,30592
2016-11-09T12:56:34.888Z,27904
2016-11-09T12:57:34.845Z,29184
2016-11-09T12:58:34.848Z,29152
2016-11-09T12:59:34.818Z,28640
2016-11-09T13:00:34.789Z,26048
2016-11-09T13:01:34.789Z,24704
2016-11-09T13:02:34.779Z,26848
2016-11-09T13:03:34.741Z,24480
2016-11-09T13:04:34.702Z,20928
2016-11-09T13:05:34.719Z,19232
2016-11-09T13:06:34.685Z,16388
2016-11-09T13:07:34.644Z,15528
2016-11-09T13:08:34.652Z,15516
2016-11-09T13:09:34.598Z,15872
2016-11-09T13:10:34.587Z,17064
2016-11-09T13:11:34.550Z,19808
2016-11-09T13:12:34.529Z,23200
2016-11-09T13:13:34.512Z,25440
2016-11-09T13:14:34.517Z,27712
2016-11-09T13:15:34.481Z,29408
2016-11-09T13:16:34.444Z,32416
2016-11-09T13:17:34.438Z,33120
2016-11-09T13:18:34.401Z,31424
2016-11-09T13:19:34.371Z,29504
2016-11-09T13:20:34.355Z,28224
2016-11-09T13:21:34.356Z,26976
2016-11-09T13:22:34.342Z,24704
2016-11-09T13:23:34.272Z,22368
2016-11-09T13:24:34.279Z,20224
2016-11-09T13:25:34.265Z,18688
2016-11-09T13:26:34.227Z,16824
2016-11-09T13:27:34.222Z,15212
2016-11-09T13:28:34.178Z,14276
2016-11-09T13:29:34.184Z,14180
2016-11-09T13:30:34.159Z,14260
2016-11-09T13:31:34.124Z,14156
2016-11-09T13:32:34.094Z,13956
2016-11-09T13:33:34.088Z,13888
2016-11-09T13:34:34.036Z,14016
2016-11-09T13:35:34.025Z,14380
2016-11-09T13:36:34.019Z,14748
2016-11-09T13:37:33.987Z,15172
2016-11-09T13:38:33.966Z,15464
2016-11-09T13:39:33.949Z,15220
2016-11-09T13:40:33.940Z,14424